map of LMT home
LMT - Airport
Location
City:  Klamath Falls, Oregon, United States
Name:Crater Lake-Klamath Regional
ICAO:KLMT
IATA:LMT
FAA LID:LMT

Details
Type:Airport (Part 139 Class II)
Use:Public/Civil
Latitude:4209'22"N (42.156139)
Longitude:12143'59"W (-121.733193)
Datum:WGS 1984
Elevation:4095 ft (1248 m)
Variation:14.35E (WMM2015 magnetic declination)
-0.11 annual change
Runways:2
Longest:10301 × 150 ft (3140 × 45.5 m), paved

Time
Time Zone:UTC-8 (DST-7)
Local Time:

Weather
METAR:KLMT 140853Z AUTO 00000KT 6SM BR CLR M04/M07 A3034 RMK AO2 SLP288 T10441067 58002
TAF:KLMT 140523Z 1406/1506 VRB03KT P6SM SCT200= TAF KMFR 140523Z 1406/1506 00000KT 4SM BR SKC
FM141400 00000KT 1/4SM FZFG VV002
FM141900 VRB03KT 6SM BR SCT003
FM142100 VRB03KT P6SM SKC

Related Locations
Nearby:
Farthest:FTU: 11088 mi / 17844 km
Tolagnaro [Maurillac Airport (Fort Dauphin Airport)], MG

Find:

   beyond  
but within

Other Information
Maps:
Delays:
NOTAMs:
Links:
Sources:

  
flag of United States
flag of Oregon
  

Airport Diagram

Airport diagram for LMT

Airport diagram PDF

Sectional Chart

Flight Planning
at skyvector.com

Satellite Image

Google Maps Satellite view

 

Copyright © 2004-2017 Karl L. Swartz. All rights reserved.
The Great Circle Mapper name and logo are trademarks of the Great Circle Mapper.
All other trademarks mentioned herein belong to their respective owners.
Please see credits for attibutions and further copyright information.

  Follow gcmap on Facebook Follow gcmap on Twitter Follow gcmap on Google+ GCmap on LinkedIn

hCard Microformat

Geo Microformat